Terminal Aerodrome Forecast
Issued by NWS

Home | Current Version | Previous Version | Graphics & Text | Print | Product List | Glossary Off
Versions: 1 2 3 4 5 6 7 8 9 10 11 12 13 14

000
FTUS43 KMPX 141141
TAFRWF
TAF
KRWF 141141Z 1412/1512 28004KT P6SM OVC015
     FM141600 30009KT P6SM OVC020
     FM150700 29008KT P6SM SCT020 BKN040=

USA.gov is the U.S. government's official web portal to all federal, state and local government web resources and services.